sensor_id;sensor_type;location;lat;lon;timestamp;pressure;altitude;pressure_sealevel;temperature;humidity
51999;BME280;73339;50.924;11.598;2024-02-23T00:00:30;96635.05;;;19.83;36.49
51999;BME280;73339;50.924;11.598;2024-02-23T00:03:01;96640.50;;;19.86;36.40
51999;BME280;73339;50.924;11.598;2024-02-23T00:05:31;96638.79;;;19.83;36.47
51999;BME280;73339;50.924;11.598;2024-02-23T00:08:02;96659.04;;;19.79;36.50
51999;BME280;73339;50.924;11.598;2024-02-23T00:10:32;96665.30;;;19.83;36.41
51999;BME280;73339;50.924;11.598;2024-02-23T00:13:03;96673.52;;;19.99;36.01
51999;BME280;73339;50.924;11.598;2024-02-23T00:15:33;96664.78;;;19.82;36.39
51999;BME280;73339;50.924;11.598;2024-02-23T00:18:04;96682.98;;;19.93;36.16
51999;BME280;73339;50.924;11.598;2024-02-23T00:20:34;96666.89;;;19.77;36.46
51999;BME280;73339;50.924;11.598;2024-02-23T00:23:04;96676.42;;;19.97;36.05
51999;BME280;73339;50.924;11.598;2024-02-23T00:25:35;96700.17;;;19.79;36.37
51999;BME280;73339;50.924;11.598;2024-02-23T00:28:06;96719.89;;;19.88;36.15
51999;BME280;73339;50.924;11.598;2024-02-23T00:30:36;96732.27;;;19.71;36.45
51999;BME280;73339;50.924;11.598;2024-02-23T00:33:06;96730.28;;;19.89;36.09
51999;BME280;73339;50.924;11.598;2024-02-23T00:35:37;96727.31;;;19.94;35.97
51999;BME280;73339;50.924;11.598;2024-02-23T00:38:07;96726.89;;;19.92;35.99
51999;BME280;73339;50.924;11.598;2024-02-23T00:40:38;96725.66;;;19.83;36.14
51999;BME280;73339;50.924;11.598;2024-02-23T00:43:08;96725.23;;;19.94;35.90
51999;BME280;73339;50.924;11.598;2024-02-23T00:45:39;96753.70;;;19.82;36.11
51999;BME280;73339;50.924;11.598;2024-02-23T00:48:09;96755.11;;;19.99;35.70
51999;BME280;73339;50.924;11.598;2024-02-23T00:50:39;96771.47;;;19.81;35.98
51999;BME280;73339;50.924;11.598;2024-02-23T00:53:10;96788.11;;;19.87;36.01
51999;BME280;73339;50.924;11.598;2024-02-23T00:55:40;96797.91;;;19.82;35.93
51999;BME280;73339;50.924;11.598;2024-02-23T00:58:11;96796.01;;;19.93;35.73
51999;BME280;73339;50.924;11.598;2024-02-23T01:00:41;96819.49;;;19.89;35.78
51999;BME280;73339;50.924;11.598;2024-02-23T01:03:12;96834.97;;;19.97;35.58
51999;BME280;73339;50.924;11.598;2024-02-23T01:05:42;96852.31;;;19.90;35.66
51999;BME280;73339;50.924;11.598;2024-02-23T01:08:12;96854.01;;;19.85;35.74
51999;BME280;73339;50.924;11.598;2024-02-23T01:10:43;96856.04;;;19.83;35.78
51999;BME280;73339;50.924;11.598;2024-02-23T01:13:13;96857.51;;;19.92;35.64
51999;BME280;73339;50.924;11.598;2024-02-23T01:15:44;96875.20;;;19.96;35.47
51999;BME280;73339;50.924;11.598;2024-02-23T01:18:14;96901.93;;;20.01;35.32
51999;BME280;73339;50.924;11.598;2024-02-23T01:20:44;96921.80;;;19.94;35.46
51999;BME280;73339;50.924;11.598;2024-02-23T01:23:15;96923.09;;;20.09;35.15
51999;BME280;73339;50.924;11.598;2024-02-23T01:25:45;96927.55;;;20.03;35.19
51999;BME280;73339;50.924;11.598;2024-02-23T01:28:16;96920.78;;;19.98;35.25
51999;BME280;73339;50.924;11.598;2024-02-23T01:30:46;96919.95;;;19.99;35.20
51999;BME280;73339;50.924;11.598;2024-02-23T01:33:17;96928.04;;;20.00;35.11
51999;BME280;73339;50.924;11.598;2024-02-23T01:35:47;96935.63;;;19.99;35.12
51999;BME280;73339;50.924;11.598;2024-02-23T01:38:18;96927.24;;;20.04;35.05
51999;BME280;73339;50.924;11.598;2024-02-23T01:40:49;96931.81;;;19.95;35.19
51999;BME280;73339;50.924;11.598;2024-02-23T01:43:18;96943.73;;;19.95;35.20
51999;BME280;73339;50.924;11.598;2024-02-23T01:45:49;96947.20;;;20.07;34.89
51999;BME280;73339;50.924;11.598;2024-02-23T01:48:20;96941.72;;;19.81;35.41
51999;BME280;73339;50.924;11.598;2024-02-23T01:50:50;96943.97;;;19.89;35.19
51999;BME280;73339;50.924;11.598;2024-02-23T01:53:20;96948.29;;;19.96;35.10
51999;BME280;73339;50.924;11.598;2024-02-23T01:55:51;96978.43;;;19.92;35.06
51999;BME280;73339;50.924;11.598;2024-02-23T01:58:21;96989.96;;;19.96;35.04
51999;BME280;73339;50.924;11.598;2024-02-23T02:00:52;96998.34;;;19.92;35.00
51999;BME280;73339;50.924;11.598;2024-02-23T02:03:22;96992.09;;;19.94;34.98
51999;BME280;73339;50.924;11.598;2024-02-23T02:05:53;97002.46;;;19.97;34.82
51999;BME280;73339;50.924;11.598;2024-02-23T02:08:23;97024.50;;;19.98;34.78
51999;BME280;73339;50.924;11.598;2024-02-23T02:10:53;97024.39;;;19.90;34.94
51999;BME280;73339;50.924;11.598;2024-02-23T02:13:24;97032.38;;;20.13;34.44
51999;BME280;73339;50.924;11.598;2024-02-23T02:15:54;97027.87;;;20.08;34.52
51999;BME280;73339;50.924;11.598;2024-02-23T02:18:25;97033.37;;;20.18;34.24
51999;BME280;73339;50.924;11.598;2024-02-23T02:20:56;97030.05;;;19.98;34.65
51999;BME280;73339;50.924;11.598;2024-02-23T02:23:26;97042.46;;;20.02;34.58
51999;BME280;73339;50.924;11.598;2024-02-23T02:25:57;97041.31;;;20.04;34.52
51999;BME280;73339;50.924;11.598;2024-02-23T02:28:27;97039.08;;;20.02;34.52
51999;BME280;73339;50.924;11.598;2024-02-23T02:30:57;97033.91;;;20.05;34.38
51999;BME280;73339;50.924;11.598;2024-02-23T02:33:27;97040.53;;;19.87;34.70
51999;BME280;73339;50.924;11.598;2024-02-23T02:35:58;97040.07;;;20.09;34.25
51999;BME280;73339;50.924;11.598;2024-02-23T02:38:29;97036.91;;;19.97;34.40
51999;BME280;73339;50.924;11.598;2024-02-23T02:40:59;97044.87;;;20.09;34.13
51999;BME280;73339;50.924;11.598;2024-02-23T02:43:30;97052.26;;;19.96;34.33
51999;BME280;73339;50.924;11.598;2024-02-23T02:46:00;97049.65;;;19.98;34.39
51999;BME280;73339;50.924;11.598;2024-02-23T02:48:30;97062.30;;;19.99;34.24
51999;BME280;73339;50.924;11.598;2024-02-23T02:51:00;97059.04;;;19.87;34.42
51999;BME280;73339;50.924;11.598;2024-02-23T02:53:31;97059.80;;;20.01;34.10
51999;BME280;73339;50.924;11.598;2024-02-23T02:56:05;97073.63;;;20.02;34.11
51999;BME280;73339;50.924;11.598;2024-02-23T02:58:32;97083.76;;;20.10;33.93
51999;BME280;73339;50.924;11.598;2024-02-23T03:01:03;97090.57;;;20.15;33.84
51999;BME280;73339;50.924;11.598;2024-02-23T03:03:33;97102.84;;;20.16;33.79
51999;BME280;73339;50.924;11.598;2024-02-23T03:06:04;97105.13;;;19.90;34.29
51999;BME280;73339;50.924;11.598;2024-02-23T03:08:34;97118.21;;;20.19;33.67
51999;BME280;73339;50.924;11.598;2024-02-23T03:11:04;97124.96;;;20.06;33.84
51999;BME280;73339;50.924;11.598;2024-02-23T03:13:35;97126.03;;;20.05;33.83
51999;BME280;73339;50.924;11.598;2024-02-23T03:16:05;97132.44;;;20.06;33.84
51999;BME280;73339;50.924;11.598;2024-02-23T03:18:35;97144.64;;;20.02;33.80
51999;BME280;73339;50.924;11.598;2024-02-23T03:21:06;97139.95;;;20.00;33.94
51999;BME280;73339;50.924;11.598;2024-02-23T03:23:36;97130.35;;;20.02;33.85
51999;BME280;73339;50.924;11.598;2024-02-23T03:26:07;97137.30;;;20.14;33.61
51999;BME280;73339;50.924;11.598;2024-02-23T03:28:37;97144.91;;;20.14;33.64
51999;BME280;73339;50.924;11.598;2024-02-23T03:31:08;97157.15;;;20.01;33.96
51999;BME280;73339;50.924;11.598;2024-02-23T03:33:38;97157.49;;;20.11;33.72
51999;BME280;73339;50.924;11.598;2024-02-23T03:36:08;97170.25;;;20.07;33.78
51999;BME280;73339;50.924;11.598;2024-02-23T03:38:39;97179.46;;;19.98;33.97
51999;BME280;73339;50.924;11.598;2024-02-23T03:41:09;97178.69;;;20.16;33.61
51999;BME280;73339;50.924;11.598;2024-02-23T03:43:40;97179.28;;;20.11;33.73
51999;BME280;73339;50.924;11.598;2024-02-23T03:46:10;97192.98;;;20.15;33.66
51999;BME280;73339;50.924;11.598;2024-02-23T03:48:41;97196.98;;;20.11;33.70
51999;BME280;73339;50.924;11.598;2024-02-23T03:51:11;97207.36;;;19.93;34.07
51999;BME280;73339;50.924;11.598;2024-02-23T03:53:42;97214.26;;;20.00;33.90
51999;BME280;73339;50.924;11.598;2024-02-23T03:56:12;97222.54;;;20.07;33.75
51999;BME280;73339;50.924;11.598;2024-02-23T03:58:42;97218.61;;;20.18;33.46
51999;BME280;73339;50.924;11.598;2024-02-23T04:01:13;97228.35;;;20.03;33.80
51999;BME280;73339;50.924;11.598;2024-02-23T04:03:43;97234.98;;;19.97;33.91
51999;BME280;73339;50.924;11.598;2024-02-23T04:06:14;97232.19;;;20.03;33.79
51999;BME280;73339;50.924;11.598;2024-02-23T04:08:44;97224.34;;;20.01;33.74
51999;BME280;73339;50.924;11.598;2024-02-23T04:11:15;97224.38;;;20.03;33.70
51999;BME280;73339;50.924;11.598;2024-02-23T04:13:45;97227.13;;;20.01;33.73
51999;BME280;73339;50.924;11.598;2024-02-23T04:16:15;97232.65;;;19.99;33.83
51999;BME280;73339;50.924;11.598;2024-02-23T04:18:46;97223.35;;;19.97;33.75
51999;BME280;73339;50.924;11.598;2024-02-23T04:21:16;97234.67;;;20.06;33.65
51999;BME280;73339;50.924;11.598;2024-02-23T04:23:47;97243.72;;;20.07;33.60
51999;BME280;73339;50.924;11.598;2024-02-23T04:26:18;97255.35;;;20.19;33.35
51999;BME280;73339;50.924;11.598;2024-02-23T04:28:48;97278.49;;;20.14;33.48
51999;BME280;73339;50.924;11.598;2024-02-23T04:31:18;97288.47;;;20.07;33.75
51999;BME280;73339;50.924;11.598;2024-02-23T04:33:49;97301.51;;;20.16;33.53
51999;BME280;73339;50.924;11.598;2024-02-23T04:36:19;97323.75;;;20.30;33.19
51999;BME280;73339;50.924;11.598;2024-02-23T04:38:50;97324.00;;;20.41;33.11
51999;BME280;73339;50.924;11.598;2024-02-23T04:41:20;97332.43;;;20.24;33.35
51999;BME280;73339;50.924;11.598;2024-02-23T04:43:50;97324.21;;;20.19;33.47
51999;BME280;73339;50.924;11.598;2024-02-23T04:46:21;97314.10;;;20.11;33.62
51999;BME280;73339;50.924;11.598;2024-02-23T04:48:51;97335.91;;;20.28;33.29
51999;BME280;73339;50.924;11.598;2024-02-23T04:51:22;97341.25;;;20.16;33.54
51999;BME280;73339;50.924;11.598;2024-02-23T04:53:52;97330.92;;;20.13;33.57
51999;BME280;73339;50.924;11.598;2024-02-23T04:56:22;97321.29;;;20.12;33.60
51999;BME280;73339;50.924;11.598;2024-02-23T04:58:53;97321.36;;;20.20;33.47
51999;BME280;73339;50.924;11.598;2024-02-23T05:01:23;97316.79;;;20.27;33.34
51999;BME280;73339;50.924;11.598;2024-02-23T05:03:54;97335.99;;;20.08;33.70
51999;BME280;73339;50.924;11.598;2024-02-23T05:06:24;97332.54;;;20.13;33.62
51999;BME280;73339;50.924;11.598;2024-02-23T05:08:55;97328.12;;;20.22;33.40
51999;BME280;73339;50.924;11.598;2024-02-23T05:11:25;97333.07;;;20.14;33.56
51999;BME280;73339;50.924;11.598;2024-02-23T05:13:56;97336.77;;;20.17;33.51
51999;BME280;73339;50.924;11.598;2024-02-23T05:16:26;97355.42;;;20.28;33.27
51999;BME280;73339;50.924;11.598;2024-02-23T05:18:57;97362.96;;;20.23;33.35
51999;BME280;73339;50.924;11.598;2024-02-23T05:21:27;97369.88;;;20.31;33.17
51999;BME280;73339;50.924;11.598;2024-02-23T05:23:57;97367.25;;;20.43;32.95
51999;BME280;73339;50.924;11.598;2024-02-23T05:26:28;97385.93;;;20.46;32.87
51999;BME280;73339;50.924;11.598;2024-02-23T05:28:58;97388.58;;;20.43;32.91
51999;BME280;73339;50.924;11.598;2024-02-23T05:33:59;97380.36;;;20.39;33.00
51999;BME280;73339;50.924;11.598;2024-02-23T05:36:29;97378.74;;;20.45;32.89
51999;BME280;73339;50.924;11.598;2024-02-23T05:39:00;97375.99;;;20.44;32.97
51999;BME280;73339;50.924;11.598;2024-02-23T05:41:30;97381.33;;;20.48;32.84
51999;BME280;73339;50.924;11.598;2024-02-23T05:44:01;97395.02;;;20.44;32.90
51999;BME280;73339;50.924;11.598;2024-02-23T05:46:32;97405.66;;;20.41;32.96
51999;BME280;73339;50.924;11.598;2024-02-23T05:49:02;97398.43;;;20.43;32.92
51999;BME280;73339;50.924;11.598;2024-02-23T05:51:32;97387.27;;;20.22;33.32
51999;BME280;73339;50.924;11.598;2024-02-23T05:54:03;97405.37;;;20.17;33.48
51999;BME280;73339;50.924;11.598;2024-02-23T05:56:33;97418.00;;;20.17;33.42
51999;BME280;73339;50.924;11.598;2024-02-23T05:59:04;97408.60;;;20.19;33.40
51999;BME280;73339;50.924;11.598;2024-02-23T06:01:34;97411.74;;;20.15;33.45
51999;BME280;73339;50.924;11.598;2024-02-23T06:04:04;97411.36;;;20.06;33.67
51999;BME280;73339;50.924;11.598;2024-02-23T06:06:35;97405.63;;;20.13;33.49
51999;BME280;73339;50.924;11.598;2024-02-23T06:09:05;97421.08;;;20.11;33.56
51999;BME280;73339;50.924;11.598;2024-02-23T06:11:36;97436.12;;;20.11;33.63
51999;BME280;73339;50.924;11.598;2024-02-23T06:14:06;97433.99;;;20.05;33.70
51999;BME280;73339;50.924;11.598;2024-02-23T06:16:37;97430.59;;;20.08;33.61
51999;BME280;73339;50.924;11.598;2024-02-23T06:19:08;97425.05;;;20.00;33.80
51999;BME280;73339;50.924;11.598;2024-02-23T06:21:37;97420.10;;;20.11;33.60
51999;BME280;73339;50.924;11.598;2024-02-23T06:24:08;97422.72;;;19.84;34.10
51999;BME280;73339;50.924;11.598;2024-02-23T06:26:38;97427.62;;;19.83;34.09
51999;BME280;73339;50.924;11.598;2024-02-23T06:29:09;97421.30;;;20.00;33.74
51999;BME280;73339;50.924;11.598;2024-02-23T06:31:40;97428.94;;;20.12;33.50
51999;BME280;73339;50.924;11.598;2024-02-23T06:34:10;97434.51;;;19.90;33.88
51999;BME280;73339;50.924;11.598;2024-02-23T06:36:40;97430.23;;;19.96;33.82
51999;BME280;73339;50.924;11.598;2024-02-23T06:39:11;97422.20;;;20.11;33.49
51999;BME280;73339;50.924;11.598;2024-02-23T06:41:41;97430.38;;;20.07;33.52
51999;BME280;73339;50.924;11.598;2024-02-23T06:44:11;97428.94;;;19.99;33.69
51999;BME280;73339;50.924;11.598;2024-02-23T06:46:42;97435.98;;;20.12;33.37
51999;BME280;73339;50.924;11.598;2024-02-23T06:49:12;97426.22;;;19.72;34.11
51999;BME280;73339;50.924;11.598;2024-02-23T06:51:43;97430.22;;;19.80;33.32
51999;BME280;73339;50.924;11.598;2024-02-23T06:54:13;97445.43;;;20.11;32.54
51999;BME280;73339;50.924;11.598;2024-02-23T06:56:44;97469.49;;;20.04;32.67
51999;BME280;73339;50.924;11.598;2024-02-23T06:59:14;97474.38;;;20.21;32.34
51999;BME280;73339;50.924;11.598;2024-02-23T07:01:48;97462.32;;;20.32;32.10
51999;BME280;73339;50.924;11.598;2024-02-23T07:04:15;97463.21;;;20.37;32.08
51999;BME280;73339;50.924;11.598;2024-02-23T07:06:45;97478.48;;;20.40;32.08
51999;BME280;73339;50.924;11.598;2024-02-23T07:09:16;97495.33;;;20.48;31.91
51999;BME280;73339;50.924;11.598;2024-02-23T07:11:46;97498.54;;;20.50;31.89
51999;BME280;73339;50.924;11.598;2024-02-23T07:14:17;97495.03;;;20.49;31.97
51999;BME280;73339;50.924;11.598;2024-02-23T07:16:47;97501.14;;;20.34;32.26
51999;BME280;73339;50.924;11.598;2024-02-23T07:19:18;97509.10;;;20.52;31.96
51999;BME280;73339;50.924;11.598;2024-02-23T07:21:48;97510.81;;;20.46;32.02
51999;BME280;73339;50.924;11.598;2024-02-23T07:24:18;97528.14;;;20.52;31.97
51999;BME280;73339;50.924;11.598;2024-02-23T07:26:49;97538.13;;;20.44;32.18
51999;BME280;73339;50.924;11.598;2024-02-23T07:29:19;97545.85;;;20.44;32.20
51999;BME280;73339;50.924;11.598;2024-02-23T07:31:50;97553.09;;;20.40;32.31
51999;BME280;73339;50.924;11.598;2024-02-23T07:34:20;97549.10;;;20.31;32.43
51999;BME280;73339;50.924;11.598;2024-02-23T07:36:51;97544.11;;;20.36;32.30
51999;BME280;73339;50.924;11.598;2024-02-23T07:39:21;97550.35;;;20.37;32.31
51999;BME280;73339;50.924;11.598;2024-02-23T07:41:52;97552.04;;;20.43;32.29
51999;BME280;73339;50.924;11.598;2024-02-23T07:44:22;97555.47;;;20.34;32.43
51999;BME280;73339;50.924;11.598;2024-02-23T07:46:52;97558.62;;;20.26;32.56
51999;BME280;73339;50.924;11.598;2024-02-23T07:49:23;97567.86;;;20.44;32.32
51999;BME280;73339;50.924;11.598;2024-02-23T07:51:54;97563.94;;;20.35;32.55
51999;BME280;73339;50.924;11.598;2024-02-23T07:54:24;97568.59;;;20.35;32.56
51999;BME280;73339;50.924;11.598;2024-02-23T07:56:54;97573.65;;;20.30;32.65
51999;BME280;73339;50.924;11.598;2024-02-23T07:59:25;97576.97;;;20.37;32.48
51999;BME280;73339;50.924;11.598;2024-02-23T08:01:55;97571.85;;;20.43;32.26
51999;BME280;73339;50.924;11.598;2024-02-23T08:04:26;97577.86;;;20.28;32.57
51999;BME280;73339;50.924;11.598;2024-02-23T08:06:56;97574.32;;;20.37;32.45
51999;BME280;73339;50.924;11.598;2024-02-23T08:09:27;97570.99;;;20.36;32.46
51999;BME280;73339;50.924;11.598;2024-02-23T08:11:57;97565.76;;;20.45;32.30
51999;BME280;73339;50.924;11.598;2024-02-23T08:14:27;97571.16;;;20.32;32.58
51999;BME280;73339;50.924;11.598;2024-02-23T08:16:58;97578.89;;;20.43;32.33
51999;BME280;73339;50.924;11.598;2024-02-23T08:19:28;97583.01;;;20.50;32.26
51999;BME280;73339;50.924;11.598;2024-02-23T08:21:59;97583.60;;;20.51;32.29
51999;BME280;73339;50.924;11.598;2024-02-23T08:24:29;97586.12;;;20.51;32.17
51999;BME280;73339;50.924;11.598;2024-02-23T08:26:59;97589.36;;;20.45;32.29
51999;BME280;73339;50.924;11.598;2024-02-23T08:29:30;97586.35;;;20.56;32.09
51999;BME280;73339;50.924;11.598;2024-02-23T08:32:00;97592.79;;;20.34;32.46
51999;BME280;73339;50.924;11.598;2024-02-23T08:34:31;97597.57;;;20.42;32.31
51999;BME280;73339;50.924;11.598;2024-02-23T08:37:01;97601.67;;;20.40;32.47
51999;BME280;73339;50.924;11.598;2024-02-23T08:39:32;97605.87;;;20.49;32.24
51999;BME280;73339;50.924;11.598;2024-02-23T08:42:02;97603.39;;;19.84;32.92
51999;BME280;73339;50.924;11.598;2024-02-23T08:44:33;97604.33;;;19.95;31.94
51999;BME280;73339;50.924;11.598;2024-02-23T08:47:03;97613.11;;;20.26;31.59
51999;BME280;73339;50.924;11.598;2024-02-23T08:49:33;97616.79;;;20.29;31.70
51999;BME280;73339;50.924;11.598;2024-02-23T08:52:04;97620.47;;;20.50;31.39
51999;BME280;73339;50.924;11.598;2024-02-23T08:54:34;97615.56;;;20.66;31.01
51999;BME280;73339;50.924;11.598;2024-02-23T08:57:05;97611.93;;;20.71;31.00
51999;BME280;73339;50.924;11.598;2024-02-23T08:59:35;97599.28;;;20.74;30.86
51999;BME280;73339;50.924;11.598;2024-02-23T09:02:06;97595.97;;;20.77;30.91
51999;BME280;73339;50.924;11.598;2024-02-23T09:04:36;97596.65;;;20.80;30.82
51999;BME280;73339;50.924;11.598;2024-02-23T09:07:07;97605.93;;;20.84;30.74
51999;BME280;73339;50.924;11.598;2024-02-23T09:09:37;97608.47;;;20.79;30.78
51999;BME280;73339;50.924;11.598;2024-02-23T09:12:08;97605.12;;;20.80;30.89
51999;BME280;73339;50.924;11.598;2024-02-23T09:14:38;97605.22;;;20.82;30.85
51999;BME280;73339;50.924;11.598;2024-02-23T09:17:08;97596.37;;;20.76;30.91
51999;BME280;73339;50.924;11.598;2024-02-23T09:19:39;97597.05;;;20.67;31.07
51999;BME280;73339;50.924;11.598;2024-02-23T09:22:09;97605.43;;;20.77;30.91
51999;BME280;73339;50.924;11.598;2024-02-23T09:24:40;97603.78;;;20.27;31.57
51999;BME280;73339;50.924;11.598;2024-02-23T09:27:10;97603.88;;;20.40;31.40
51999;BME280;73339;50.924;11.598;2024-02-23T09:29:41;97601.01;;;20.67;31.26
51999;BME280;73339;50.924;11.598;2024-02-23T09:32:11;97593.02;;;20.80;31.23
51999;BME280;73339;50.924;11.598;2024-02-23T09:34:42;97598.74;;;20.92;31.28
51999;BME280;73339;50.924;11.598;2024-02-23T09:37:12;97605.56;;;20.90;31.58
51999;BME280;73339;50.924;11.598;2024-02-23T09:39:42;97600.79;;;20.90;31.78
51999;BME280;73339;50.924;11.598;2024-02-23T09:42:13;97604.77;;;20.95;31.92
51999;BME280;73339;50.924;11.598;2024-02-23T09:44:44;97610.12;;;20.97;32.05
51999;BME280;73339;50.924;11.598;2024-02-23T09:47:14;97599.39;;;20.98;32.21
51999;BME280;73339;50.924;11.598;2024-02-23T09:49:47;97598.21;;;21.04;32.24
51999;BME280;73339;50.924;11.598;2024-02-23T09:52:14;97604.05;;;21.04;32.45
51999;BME280;73339;50.924;11.598;2024-02-23T09:54:45;97607.09;;;21.04;32.66
51999;BME280;73339;50.924;11.598;2024-02-23T09:57:16;97602.36;;;21.06;32.84
51999;BME280;73339;50.924;11.598;2024-02-23T09:59:47;97600.45;;;21.01;33.10
51999;BME280;73339;50.924;11.598;2024-02-23T10:02:16;97600.17;;;21.06;33.01
51999;BME280;73339;50.924;11.598;2024-02-23T10:04:48;97600.70;;;21.00;33.02
51999;BME280;73339;50.924;11.598;2024-02-23T10:07:17;97601.59;;;21.11;31.70
51999;BME280;73339;50.924;11.598;2024-02-23T10:09:47;97598.79;;;21.06;31.61
51999;BME280;73339;50.924;11.598;2024-02-23T10:12:18;97601.59;;;21.11;31.22
51999;BME280;73339;50.924;11.598;2024-02-23T10:14:48;97597.86;;;21.08;31.33
51999;BME280;73339;50.924;11.598;2024-02-23T10:17:20;97600.40;;;21.03;31.61
51999;BME280;73339;50.924;11.598;2024-02-23T10:19:49;97605.15;;;21.05;31.94
51999;BME280;73339;50.924;11.598;2024-02-23T10:22:20;97611.95;;;21.16;31.95
51999;BME280;73339;50.924;11.598;2024-02-23T10:24:50;97625.43;;;20.95;32.07
51999;BME280;73339;50.924;11.598;2024-02-23T10:27:21;97623.90;;;21.01;32.05
51999;BME280;73339;50.924;11.598;2024-02-23T10:29:51;97626.38;;;21.26;31.44
51999;BME280;73339;50.924;11.598;2024-02-23T10:32:23;97632.24;;;21.25;31.89
51999;BME280;73339;50.924;11.598;2024-02-23T10:34:52;97642.29;;;21.33;31.79
51999;BME280;73339;50.924;11.598;2024-02-23T10:37:22;97645.93;;;21.34;31.86
51999;BME280;73339;50.924;11.598;2024-02-23T10:39:57;97649.70;;;21.23;32.24
51999;BME280;73339;50.924;11.598;2024-02-23T10:42:24;97652.51;;;21.34;32.16
51999;BME280;73339;50.924;11.598;2024-02-23T10:44:54;97650.24;;;21.36;32.10
51999;BME280;73339;50.924;11.598;2024-02-23T10:47:24;97661.84;;;21.32;32.43
51999;BME280;73339;50.924;11.598;2024-02-23T10:49:55;97664.60;;;21.29;32.74
51999;BME280;73339;50.924;11.598;2024-02-23T10:52:25;97671.70;;;21.32;32.66
51999;BME280;73339;50.924;11.598;2024-02-23T10:54:55;97677.69;;;21.28;32.87
51999;BME280;73339;50.924;11.598;2024-02-23T10:57:25;97676.39;;;21.43;32.59
51999;BME280;73339;50.924;11.598;2024-02-23T10:59:56;97680.90;;;21.35;32.92
51999;BME280;73339;50.924;11.598;2024-02-23T11:02:29;97683.33;;;21.37;32.64
51999;BME280;73339;50.924;11.598;2024-02-23T11:04:57;97677.90;;;21.35;32.52
51999;BME280;73339;50.924;11.598;2024-02-23T11:07:29;97677.62;;;21.32;32.81
51999;BME280;73339;50.924;11.598;2024-02-23T11:09:59;97678.55;;;21.42;32.73
51999;BME280;73339;50.924;11.598;2024-02-23T11:12:29;97685.18;;;21.42;32.73
51999;BME280;73339;50.924;11.598;2024-02-23T11:14:59;97679.21;;;21.33;33.05
51999;BME280;73339;50.924;11.598;2024-02-23T11:17:30;97677.61;;;21.26;33.00
51999;BME280;73339;50.924;11.598;2024-02-23T11:20:03;97671.26;;;21.13;31.97
51999;BME280;73339;50.924;11.598;2024-02-23T11:22:32;97673.31;;;21.10;31.89
51999;BME280;73339;50.924;11.598;2024-02-23T11:25:00;97662.75;;;21.17;31.73
51999;BME280;73339;50.924;11.598;2024-02-23T11:27:31;97664.36;;;21.14;31.77
51999;BME280;73339;50.924;11.598;2024-02-23T11:30:03;97658.40;;;21.11;31.90
51999;BME280;73339;50.924;11.598;2024-02-23T11:32:37;97661.60;;;21.14;31.83
51999;BME280;73339;50.924;11.598;2024-02-23T11:35:02;97668.47;;;21.18;31.68
51999;BME280;73339;50.924;11.598;2024-02-23T11:37:32;97658.85;;;21.13;31.82
51999;BME280;73339;50.924;11.598;2024-02-23T11:40:03;97660.21;;;21.20;31.70
51999;BME280;73339;50.924;11.598;2024-02-23T11:42:33;97653.05;;;21.19;31.36
51999;BME280;73339;50.924;11.598;2024-02-23T11:45:04;97655.53;;;21.32;30.53
51999;BME280;73339;50.924;11.598;2024-02-23T11:47:34;97660.68;;;21.35;30.29
51999;BME280;73339;50.924;11.598;2024-02-23T11:50:07;97653.57;;;21.35;30.05
51999;BME280;73339;50.924;11.598;2024-02-23T11:52:34;97641.20;;;21.20;30.20
51999;BME280;73339;50.924;11.598;2024-02-23T11:55:06;97636.28;;;20.70;30.54
51999;BME280;73339;50.924;11.598;2024-02-23T11:57:36;97635.90;;;20.54;29.95
51999;BME280;73339;50.924;11.598;2024-02-23T12:00:06;97632.72;;;20.46;29.58
51999;BME280;73339;50.924;11.598;2024-02-23T12:02:36;97625.87;;;20.41;29.48
51999;BME280;73339;50.924;11.598;2024-02-23T12:05:07;97629.35;;;20.42;29.46
51999;BME280;73339;50.924;11.598;2024-02-23T12:07:37;97632.18;;;20.34;29.53
51999;BME280;73339;50.924;11.598;2024-02-23T12:10:08;97626.69;;;20.65;29.13
51999;BME280;73339;50.924;11.598;2024-02-23T12:12:38;97630.43;;;20.92;29.06
51999;BME280;73339;50.924;11.598;2024-02-23T12:15:09;97631.33;;;21.22;28.72
51999;BME280;73339;50.924;11.598;2024-02-23T12:17:47;97628.74;;;21.34;28.69
51999;BME280;73339;50.924;11.598;2024-02-23T12:20:10;97624.60;;;20.88;29.77
51999;BME280;73339;50.924;11.598;2024-02-23T12:22:40;97627.44;;;21.26;28.92
51999;BME280;73339;50.924;11.598;2024-02-23T12:25:12;97623.50;;;21.45;28.63
51999;BME280;73339;50.924;11.598;2024-02-23T12:27:40;97627.60;;;21.41;28.81
51999;BME280;73339;50.924;11.598;2024-02-23T12:30:13;97632.58;;;21.48;28.78
51999;BME280;73339;50.924;11.598;2024-02-23T12:32:41;97635.99;;;21.05;29.56
51999;BME280;73339;50.924;11.598;2024-02-23T12:35:12;97638.54;;;21.37;29.26
51999;BME280;73339;50.924;11.598;2024-02-23T12:37:43;97641.76;;;21.55;29.12
51999;BME280;73339;50.924;11.598;2024-02-23T12:40:13;97642.07;;;21.61;29.29
51999;BME280;73339;50.924;11.598;2024-02-23T12:42:43;97638.16;;;21.64;29.47
51999;BME280;73339;50.924;11.598;2024-02-23T12:45:13;97637.15;;;21.59;29.69
51999;BME280;73339;50.924;11.598;2024-02-23T12:47:44;97641.43;;;21.66;29.88
51999;BME280;73339;50.924;11.598;2024-02-23T12:50:14;97651.12;;;21.63;30.08
51999;BME280;73339;50.924;11.598;2024-02-23T12:52:44;97653.05;;;21.71;30.05
51999;BME280;73339;50.924;11.598;2024-02-23T12:55:15;97661.88;;;21.67;30.34
51999;BME280;73339;50.924;11.598;2024-02-23T12:57:45;97657.48;;;21.65;30.58
51999;BME280;73339;50.924;11.598;2024-02-23T13:00:16;97657.89;;;21.69;30.41
51999;BME280;73339;50.924;11.598;2024-02-23T13:02:46;97652.92;;;21.72;30.59
51999;BME280;73339;50.924;11.598;2024-02-23T13:05:17;97650.33;;;21.70;30.73
51999;BME280;73339;50.924;11.598;2024-02-23T13:07:47;97644.78;;;21.58;31.18